Time;durP1;ratioP1;P1;durP2;ratioP2;P2;SDS_P1;SDS_P2;PMS_P1;PMS_P2;Temp;Humidity;BMP_temperature;BMP_pressure;BME280_temperature;BME280_humidity;BME280_pressure;Samples;Min_cycle;Max_cycle;Signal;HPM_P1;HPM_P2
2023/09/17 00:00:09;;;;;;;10.27;9.13;;;21.00;99.90;;;;;;5095845;28;20024;-62
2023/09/17 00:02:35;;;;;;;12.45;9.20;;;20.90;99.90;;;;;;5096107;28;20035;-62
2023/09/17 00:05:01;;;;;;;;;;;21.00;99.90;;;;;;5095747;28;20478;-62
2023/09/17 00:07:26;;;;;;;13.43;8.40;;;20.90;99.90;;;;;;5095206;28;20003;-63
2023/09/17 00:09:52;;;;;;;10.52;8.90;;;20.90;99.90;;;;;;5095038;28;20042;-63
2023/09/17 00:12:19;;;;;;;10.45;8.82;;;20.70;99.90;;;;;;5095775;28;20047;-62
2023/09/17 00:14:44;;;;;;;;;;;20.80;99.90;;;;;;5095238;28;20016;-63
2023/09/17 00:17:10;;;;;;;9.10;8.20;;;20.80;99.90;;;;;;5094898;28;19912;-61
2023/09/17 00:19:35;;;;;;;11.30;8.23;;;20.90;99.90;;;;;;5076806;28;20035;-61
2023/09/17 00:22:02;;;;;;;9.65;8.65;;;21.00;99.90;;;;;;5094515;28;20043;-61
2023/09/17 00:24:28;;;;;;;11.88;8.43;;;20.80;99.90;;;;;;5094418;28;20032;-61
2023/09/17 00:26:54;;;;;;;10.93;9.07;;;20.70;99.90;;;;;;5094668;28;20031;-62
2023/09/17 00:29:19;;;;;;;11.85;9.15;;;20.60;99.90;;;;;;5076076;28;20056;-62
2023/09/17 00:31:45;;;;;;;9.02;8.15;;;20.50;99.90;;;;;;5094915;28;20101;-62
2023/09/17 00:34:10;;;;;;;11.82;8.95;;;20.40;99.90;;;;;;5094308;28;20566;-62
2023/09/17 00:36:37;;;;;;;11.20;8.13;;;20.40;99.90;;;;;;5094632;28;20032;-62
2023/09/17 00:39:04;;;;;;;10.77;8.63;;;20.40;99.90;;;;;;5094381;28;20032;-62
2023/09/17 00:41:29;;;;;;;13.30;8.93;;;20.40;99.90;;;;;;5094358;28;20456;-61
2023/09/17 00:43:55;;;;;;;11.50;9.18;;;20.40;99.90;;;;;;5093841;28;20052;-62
2023/09/17 00:46:20;;;;;;;9.85;8.85;;;20.30;99.90;;;;;;5094036;28;20024;-63
2023/09/17 00:48:46;;;;;;;10.57;8.75;;;20.40;99.90;;;;;;5094567;28;20421;-61
2023/09/17 00:51:12;;;;;;;9.75;8.75;;;20.40;99.90;;;;;;5094520;28;20056;-62
2023/09/17 00:53:40;;;;;;;11.13;8.73;;;20.50;99.90;;;;;;5094065;28;20127;-62
2023/09/17 00:56:06;;;;;;;10.43;9.00;;;20.50;99.90;;;;;;5094500;28;20020;-62
2023/09/17 00:58:33;;;;;;;10.23;8.45;;;20.50;99.90;;;;;;5093730;28;20024;-62
2023/09/17 01:00:59;;;;;;;9.90;8.90;;;20.70;99.90;;;;;;5094041;28;20024;-62
2023/09/17 01:03:28;;;;;;;11.30;9.25;;;20.70;99.90;;;;;;5075817;28;20020;-60
2023/09/17 01:05:55;;;;;;;11.32;9.95;;;20.80;99.90;;;;;;5093865;28;20031;-61
2023/09/17 01:08:22;;;;;;;10.65;9.40;;;20.60;99.90;;;;;;5093623;28;20517;-59
2023/09/17 01:10:49;;;;;;;10.20;8.93;;;20.50;99.90;;;;;;5094261;28;20035;-61
2023/09/17 01:13:15;;;;;;;10.30;8.73;;;20.50;99.90;;;;;;5093519;28;20094;-61
2023/09/17 01:15:41;;;;;;;;;;;20.70;99.90;;;;;;5075940;28;20024;-61
2023/09/17 01:18:09;;;;;;;11.15;8.55;;;20.70;99.90;;;;;;5094071;28;20045;-61
2023/09/17 01:20:50;;;;;;;10.88;8.93;;;20.60;99.90;;;;;;5093990;28;20082;-65
2023/09/17 01:23:26;;;;;;;11.00;9.13;;;20.40;99.90;;;;;;5093565;28;20035;-65
2023/09/17 01:25:56;;;;;;;10.75;8.80;;;20.30;99.90;;;;;;5093515;28;20390;-66
2023/09/17 01:28:22;;;;;;;10.82;8.65;;;20.50;99.90;;;;;;5093271;28;20028;-65
2023/09/17 01:30:48;;;;;;;10.15;8.20;;;20.50;99.90;;;;;;5093164;28;20039;-66
2023/09/17 01:33:13;;;;;;;10.38;8.73;;;20.60;99.90;;;;;;5093172;28;20024;-66
2023/09/17 01:35:58;;;;;;;10.60;8.35;;;20.60;99.90;;;;;;5074996;28;20470;-65
2023/09/17 01:38:30;;;;;;;12.05;9.38;;;20.40;99.90;;;;;;5093258;28;20024;-66
2023/09/17 01:40:56;;;;;;;9.02;8.13;;;20.40;99.90;;;;;;5093009;28;20128;-66
2023/09/17 01:43:23;;;;;;;;;;;20.40;99.90;;;;;;5092936;28;20039;-66
2023/09/17 01:45:50;;;;;;;12.32;8.68;;;20.40;99.90;;;;;;5093357;28;19904;-67
2023/09/17 01:48:16;;;;;;;12.52;7.68;;;20.30;99.90;;;;;;5093672;28;20518;-66
2023/09/17 01:50:42;;;;;;;;;;;20.40;99.90;;;;;;5094492;28;20032;-65
2023/09/17 01:53:08;;;;;;;10.32;8.20;;;20.60;99.90;;;;;;5092863;28;20339;-66
2023/09/17 01:55:35;;;;;;;11.05;7.88;;;20.50;99.90;;;;;;5093025;28;20035;-66
2023/09/17 01:58:01;;;;;;;8.23;7.43;;;20.70;99.90;;;;;;5092980;28;20032;-66
2023/09/17 02:00:28;;;;;;;13.63;8.93;;;20.70;99.90;;;;;;5092543;28;20536;-66
2023/09/17 02:02:53;;;;;;;9.32;8.05;;;20.60;99.90;;;;;;5092658;28;20024;-65
2023/09/17 02:05:21;;;;;;;9.93;8.68;;;20.50;99.90;;;;;;5093132;28;20094;-66
2023/09/17 02:07:47;;;;;;;9.00;8.00;;;20.50;99.90;;;;;;5093016;28;20055;-65
2023/09/17 02:10:12;;;;;;;;;;;20.70;99.90;;;;;;5093061;28;20565;-65
2023/09/17 02:12:38;;;;;;;8.93;7.68;;;20.70;99.90;;;;;;5092612;28;19935;-66
2023/09/17 02:15:04;;;;;;;9.32;7.65;;;20.70;99.90;;;;;;5092508;28;20073;-66
2023/09/17 02:17:30;;;;;;;;;;;20.60;99.90;;;;;;5093250;28;20048;-66
2023/09/17 02:19:59;;;;;;;12.00;8.25;;;20.50;99.90;;;;;;5092682;28;19904;-66
2023/09/17 02:22:24;;;;;;;11.93;7.97;;;20.50;99.90;;;;;;5096779;28;20036;-66
2023/09/17 02:24:50;;;;;;;8.95;8.05;;;20.40;99.90;;;;;;5097022;28;20063;-66
2023/09/17 02:27:16;;;;;;;9.38;7.82;;;20.40;99.90;;;;;;5096723;28;20036;-66
2023/09/17 02:29:41;;;;;;;;;;;20.60;99.90;;;;;;5096926;28;20383;-66
2023/09/17 02:32:07;;;;;;;9.88;8.30;;;20.40;99.90;;;;;;5096792;28;19904;-66
2023/09/17 02:34:32;;;;;;;9.57;8.57;;;20.40;99.90;;;;;;5096978;28;20028;-66
2023/09/17 02:36:58;;;;;;;10.15;8.98;;;20.40;99.90;;;;;;5096682;28;20367;-66
2023/09/17 02:39:23;;;;;;;10.63;8.45;;;20.20;99.90;;;;;;5097343;28;20541;-66
2023/09/17 02:41:49;;;;;;;8.48;7.57;;;20.10;99.90;;;;;;5096638;28;20474;-65
2023/09/17 02:44:14;;;;;;;9.27;8.23;;;20.30;99.90;;;;;;5096250;28;20479;-65
2023/09/17 02:46:40;;;;;;;8.38;7.57;;;20.40;99.90;;;;;;5096844;28;20028;-65
2023/09/17 02:49:06;;;;;;;9.13;7.65;;;20.50;99.90;;;;;;5097474;28;20077;-65
2023/09/17 02:51:31;;;;;;;8.48;7.32;;;20.30;99.90;;;;;;5098301;28;20032;-65
2023/09/17 02:53:57;;;;;;;10.82;7.65;;;20.30;99.90;;;;;;5099307;28;20020;-65
2023/09/17 02:56:22;;;;;;;10.63;8.13;;;20.10;99.90;;;;;;5097457;28;20540;-65
2023/09/17 02:58:48;;;;;;;8.88;7.53;;;20.10;99.90;;;;;;5077941;28;20023;-65
2023/09/17 03:01:18;;;;;;;9.55;8.07;;;20.10;99.90;;;;;;5096363;28;20036;-66
2023/09/17 03:03:47;;;;;;;9.52;7.97;;;20.10;99.90;;;;;;5097015;28;20024;-66
2023/09/17 03:06:13;;;;;;;9.35;7.35;;;20.00;99.90;;;;;;5078084;28;20047;-66
2023/09/17 03:08:41;;;;;;;13.20;7.93;;;19.90;99.90;;;;;;5096876;28;20016;-65
2023/09/17 03:11:13;;;;;;;9.13;7.57;;;19.90;99.90;;;;;;5096585;28;20020;-66
2023/09/17 03:13:44;;;;;;;9.43;8.13;;;19.90;99.90;;;;;;5095965;28;20028;-65
2023/09/17 03:16:12;;;;;;;9.68;8.68;;;20.00;99.90;;;;;;5096317;28;20544;-65
2023/09/17 03:18:47;;;;;;;8.63;7.72;;;20.20;99.90;;;;;;5095801;28;20028;-65
2023/09/17 03:21:12;;;;;;;11.57;7.63;;;20.20;99.90;;;;;;5096044;28;20491;-65
2023/09/17 03:23:38;;;;;;;10.90;7.30;;;20.20;99.90;;;;;;5095454;28;20060;-67
2023/09/17 03:26:05;;;;;;;8.00;7.25;;;20.10;99.90;;;;;;5095673;28;20035;-66
2023/09/17 03:28:31;;;;;;;9.93;7.40;;;20.10;99.90;;;;;;5095280;28;20095;-66
2023/09/17 03:30:58;;;;;;;8.02;6.97;;;20.10;99.90;;;;;;5077384;28;20047;-66
2023/09/17 03:33:23;;;;;;;;;;;20.00;99.90;;;;;;5095501;28;20099;-66
2023/09/17 03:35:49;;;;;;;9.40;7.38;;;20.10;99.90;;;;;;5095710;28;19943;-66
2023/09/17 03:38:15;;;;;;;9.70;7.63;;;19.90;99.90;;;;;;5095541;28;20034;-66
2023/09/17 03:40:41;;;;;;;8.70;6.80;;;20.00;99.90;;;;;;5095491;28;20119;-66
2023/09/17 03:43:08;;;;;;;9.52;6.55;;;19.90;99.90;;;;;;5095469;28;20428;-66
2023/09/17 03:45:34;;;;;;;11.50;7.20;;;20.00;99.90;;;;;;5095209;28;20543;-66
2023/09/17 03:47:59;;;;;;;10.20;7.13;;;20.10;99.90;;;;;;5095303;28;20095;-66
2023/09/17 03:50:25;;;;;;;9.05;7.78;;;20.20;99.90;;;;;;5095435;28;20382;-66
2023/09/17 03:52:54;;;;;;;9.98;7.55;;;20.00;99.90;;;;;;5095132;28;20047;-65
2023/09/17 03:55:20;;;;;;;9.48;7.65;;;20.10;99.90;;;;;;5095142;28;20039;-66
2023/09/17 03:57:46;;;;;;;9.27;7.60;;;20.00;99.90;;;;;;5095102;28;20023;-66
2023/09/17 04:00:13;;;;;;;9.32;8.32;;;20.10;99.90;;;;;;5076871;28;20036;-66
2023/09/17 04:02:39;;;;;;;11.52;8.07;;;20.10;99.90;;;;;;5095164;28;20331;-66
2023/09/17 04:05:13;;;;;;;8.65;7.05;;;20.10;99.90;;;;;;5095127;28;20111;-66
2023/09/17 04:07:41;;;;;;;7.30;6.60;;;19.90;99.90;;;;;;5094980;28;20052;-66
2023/09/17 04:10:07;;;;;;;8.18;6.55;;;19.90;99.90;;;;;;5094907;28;20485;-66
2023/09/17 04:12:37;;;;;;;8.88;6.95;;;19.80;99.90;;;;;;5094751;28;20440;-65
2023/09/17 04:15:16;;;;;;;7.75;6.93;;;19.90;99.90;;;;;;5094391;28;20418;-66
2023/09/17 04:17:42;;;;;;;7.93;7.13;;;19.90;99.90;;;;;;5094898;28;20113;-65
2023/09/17 04:20:13;;;;;;;8.57;7.30;;;19.80;99.90;;;;;;5095040;28;20456;-66
2023/09/17 04:22:40;;;;;;;9.27;6.90;;;19.70;99.90;;;;;;5095187;28;20094;-66
2023/09/17 04:25:06;;;;;;;8.38;7.57;;;19.80;99.90;;;;;;5094764;28;20110;-66
2023/09/17 04:27:32;;;;;;;10.70;6.95;;;19.70;99.90;;;;;;5094657;28;20098;-66
2023/09/17 04:29:57;;;;;;;7.40;6.70;;;19.70;99.90;;;;;;5094440;28;20111;-66
2023/09/17 04:32:23;;;;;;;7.72;6.80;;;19.80;99.90;;;;;;5094829;28;20475;-65
2023/09/17 04:34:48;;;;;;;8.13;6.07;;;19.90;99.90;;;;;;5094476;28;20101;-66
2023/09/17 04:37:19;;;;;;;7.43;6.30;;;19.80;99.90;;;;;;5094473;28;20024;-66
2023/09/17 04:39:46;;;;;;;11.52;7.53;;;19.80;99.90;;;;;;5095223;28;20031;-66
2023/09/17 04:42:11;;;;;;;8.02;6.75;;;19.80;99.90;;;;;;5094387;28;20493;-66
2023/09/17 04:44:37;;;;;;;7.07;6.38;;;19.90;99.90;;;;;;5093480;28;20074;-66
2023/09/17 04:47:03;;;;;;;9.57;7.15;;;19.90;99.90;;;;;;5094456;28;20032;-66
2023/09/17 04:49:30;;;;;;;7.80;6.80;;;19.90;99.90;;;;;;5076167;28;20031;-66
2023/09/17 04:51:55;;;;;;;6.80;6.10;;;19.80;99.90;;;;;;5094951;28;20478;-68
2023/09/17 04:54:22;;;;;;;9.82;7.40;;;19.80;99.90;;;;;;5094783;28;20035;-66
2023/09/17 04:56:48;;;;;;;8.48;7.32;;;19.60;99.90;;;;;;5094071;28;20016;-66
2023/09/17 04:59:13;;;;;;;8.60;7.60;;;19.70;99.90;;;;;;5093847;28;20028;-66
2023/09/17 05:01:39;;;;;;;8.32;7.18;;;19.60;99.90;;;;;;5093895;28;20024;-66
2023/09/17 05:04:05;;;;;;;11.82;7.28;;;19.60;99.90;;;;;;5094155;28;20481;-66
2023/09/17 05:06:30;;;;;;;7.80;6.70;;;19.60;99.90;;;;;;5093982;28;20032;-66
2023/09/17 05:08:56;;;;;;;8.25;7.07;;;19.60;99.90;;;;;;5094293;28;20020;-67
2023/09/17 05:11:21;;;;;;;9.48;7.47;;;19.70;99.90;;;;;;5094042;28;20398;-66
2023/09/17 05:13:47;;;;;;;9.90;7.38;;;19.70;99.90;;;;;;5092120;28;20043;-66
2023/09/17 05:16:14;;;;;;;7.97;7.05;;;19.80;99.90;;;;;;5093569;28;20031;-66
2023/09/17 05:18:39;;;;;;;14.27;8.02;;;19.80;99.90;;;;;;5093593;28;20012;-66
2023/09/17 05:21:05;;;;;;;8.27;7.40;;;19.90;99.90;;;;;;5094028;28;20020;-66
2023/09/17 05:23:31;;;;;;;8.90;7.82;;;19.80;99.90;;;;;;5093336;28;20086;-66
2023/09/17 05:25:56;;;;;;;9.43;7.10;;;19.70;99.90;;;;;;5075264;28;20020;-66
2023/09/17 05:28:23;;;;;;;11.77;7.30;;;19.60;99.90;;;;;;5093023;28;20070;-66
2023/09/17 05:30:49;;;;;;;9.80;7.03;;;19.60;99.90;;;;;;5093327;28;20490;-66
2023/09/17 05:33:14;;;;;;;8.20;6.97;;;19.50;99.90;;;;;;5093132;28;20047;-66
2023/09/17 05:35:40;;;;;;;9.23;7.38;;;19.50;99.90;;;;;;5093163;28;20032;-66
2023/09/17 05:38:05;;;;;;;9.82;6.80;;;19.50;99.90;;;;;;5093325;28;20034;-66
2023/09/17 05:40:31;;;;;;;9.65;7.82;;;19.50;99.90;;;;;;5093172;28;20024;-66
2023/09/17 05:42:57;;;;;;;10.77;6.75;;;19.40;99.90;;;;;;5092724;28;20490;-66
2023/09/17 05:45:23;;;;;;;;;;;19.50;99.90;;;;;;5093558;28;20444;-66
2023/09/17 05:47:49;;;;;;;9.57;7.22;;;19.50;99.90;;;;;;5093152;28;19904;-66
2023/09/17 05:50:15;;;;;;;8.35;7.45;;;19.50;99.90;;;;;;5083910;28;20029;-65
2023/09/17 05:52:40;;;;;;;9.27;7.30;;;19.60;99.90;;;;;;5061579;28;20017;-65
2023/09/17 05:55:06;;;;;;;7.63;6.82;;;19.70;99.90;;;;;;5034872;28;20044;-65
2023/09/17 05:57:32;;;;;;;8.13;7.32;;;19.90;99.90;;;;;;5052659;28;20025;-66
2023/09/17 05:59:59;;;;;;;10.27;7.20;;;19.90;99.90;;;;;;5052568;28;20028;-65
2023/09/17 06:02:25;;;;;;;8.65;6.82;;;19.70;99.90;;;;;;5062903;28;20040;-66
2023/09/17 06:04:53;;;;;;;8.05;7.25;;;19.60;99.90;;;;;;5072772;28;20094;-65
2023/09/17 06:07:19;;;;;;;8.43;7.20;;;19.60;99.90;;;;;;5072733;28;20036;-64
2023/09/17 06:09:45;;;;;;;8.23;7.30;;;19.50;99.90;;;;;;5072872;28;20108;-65
2023/09/17 06:12:12;;;;;;;8.40;7.13;;;19.60;99.90;;;;;;5057134;28;20115;-65
2023/09/17 06:14:37;;;;;;;8.70;7.22;;;19.80;99.90;;;;;;5092488;28;20030;-67
2023/09/17 06:17:03;;;;;;;8.98;7.45;;;20.00;99.90;;;;;;5092858;28;20483;-66
2023/09/17 06:19:29;;;;;;;9.32;7.15;;;19.80;99.90;;;;;;5093029;28;20501;-66
2023/09/17 06:21:55;;;;;;;12.57;7.57;;;19.90;99.90;;;;;;5074912;28;20028;-65
2023/09/17 06:24:20;;;;;;;8.38;7.40;;;19.90;99.90;;;;;;5092914;28;20078;-66
2023/09/17 06:26:46;;;;;;;8.82;7.00;;;19.90;99.90;;;;;;5092792;28;20024;-66
2023/09/17 06:29:12;;;;;;;8.77;7.13;;;19.90;99.90;;;;;;5092471;28;20024;-66
2023/09/17 06:31:37;;;;;;;9.15;6.95;;;20.00;99.90;;;;;;5073433;28;20074;-68
2023/09/17 06:34:03;;;;;;;10.52;7.28;;;20.00;99.90;;;;;;5072920;28;20021;-67
2023/09/17 06:36:29;;;;;;;8.68;7.20;;;20.10;99.90;;;;;;5054290;28;20479;-66
2023/09/17 06:38:55;;;;;;;9.32;7.38;;;20.20;99.90;;;;;;5062975;28;20025;-67
2023/09/17 06:41:21;;;;;;;9.60;7.40;;;20.20;99.90;;;;;;5072767;28;20028;-67
2023/09/17 06:43:47;;;;;;;8.82;7.13;;;20.30;99.90;;;;;;5089248;28;20025;-67
2023/09/17 06:46:12;;;;;;;7.60;6.80;;;20.40;99.90;;;;;;5074799;28;20110;-66
2023/09/17 06:48:38;;;;;;;12.90;9.77;;;20.50;99.90;;;;;;5093221;28;20028;-66
2023/09/17 06:51:04;;;;;;;13.77;11.13;;;20.60;99.90;;;;;;5074561;28;20111;-66
2023/09/17 06:53:29;;;;;;;8.68;7.18;;;20.60;99.90;;;;;;5085963;28;20035;-64
2023/09/17 06:55:57;;;;;;;9.27;7.30;;;20.70;99.90;;;;;;5068201;28;20032;-63
2023/09/17 06:58:22;;;;;;;7.68;6.80;;;20.70;99.90;;;;;;5055586;28;20033;-63
2023/09/17 07:00:48;;;;;;;7.35;5.95;;;20.80;99.90;;;;;;5070523;28;20077;-64
2023/09/17 07:03:13;;;;;;;10.10;7.22;;;20.90;99.90;;;;;;5064322;28;20096;-64
2023/09/17 07:05:40;;;;;;;7.35;6.53;;;21.00;99.90;;;;;;5064142;28;20370;-64
2023/09/17 07:08:05;;;;;;;;;;;21.00;99.90;;;;;;5063207;28;20047;-65
2023/09/17 07:10:32;;;;;;;10.88;9.70;;;21.20;99.90;;;;;;5066589;28;19988;-65
2023/09/17 07:12:57;;;;;;;13.00;11.05;;;21.20;99.90;;;;;;5072375;28;20017;-63
2023/09/17 07:15:25;;;;;;;6.60;5.95;;;21.30;99.90;;;;;;5057830;28;20035;-64
2023/09/17 07:17:51;;;;;;;7.13;6.03;;;21.30;99.90;;;;;;5069944;28;20055;-66
2023/09/17 07:20:19;;;;;;;7.15;5.97;;;21.50;99.90;;;;;;5066702;28;20058;-64
2023/09/17 07:22:45;;;;;;;7.40;6.03;;;21.50;99.90;;;;;;5060581;28;20025;-62
2023/09/17 07:25:11;;;;;;;7.47;5.78;;;21.70;99.90;;;;;;5072063;28;20090;-62
2023/09/17 07:27:36;;;;;;;7.25;6.20;;;21.70;99.90;;;;;;5075520;28;20120;-63
2023/09/17 07:30:03;;;;;;;7.60;5.80;;;21.70;99.90;;;;;;5075056;28;20067;-63
2023/09/17 07:32:28;;;;;;;;;;;21.80;99.90;;;;;;5075718;28;20471;-62
2023/09/17 07:34:55;;;;;;;6.70;6.00;;;22.00;99.90;;;;;;5075272;28;19977;-65
2023/09/17 07:37:21;;;;;;;9.05;7.85;;;22.20;99.90;;;;;;5075382;28;20066;-65
2023/09/17 07:39:49;;;;;;;6.93;5.55;;;22.50;99.90;;;;;;5075518;28;20032;-65
2023/09/17 07:42:14;;;;;;;9.10;6.47;;;22.70;99.90;;;;;;5075124;28;20033;-65
2023/09/17 07:44:40;;;;;;;8.13;5.90;;;22.90;99.90;;;;;;5074754;28;20036;-65
2023/09/17 07:47:08;;;;;;;;;;;23.00;99.90;;;;;;5069672;28;20041;-66
2023/09/17 07:49:35;;;;;;;7.47;6.57;;;23.10;99.90;;;;;;5075150;28;19908;-64
2023/09/17 07:52:00;;;;;;;7.40;6.45;;;23.30;99.90;;;;;;5075342;28;20443;-64
2023/09/17 07:54:26;;;;;;;8.00;6.10;;;23.40;99.90;;;;;;5075554;28;20096;-65
2023/09/17 07:56:51;;;;;;;;;;;23.50;99.90;;;;;;5064239;28;20075;-63
2023/09/17 07:59:17;;;;;;;7.93;5.15;;;23.60;99.90;;;;;;5072230;28;20248;-65
2023/09/17 08:01:44;;;;;;;;;;;23.80;99.90;;;;;;5073961;28;20407;-64
2023/09/17 08:04:11;;;;;;;5.20;4.47;;;23.70;99.90;;;;;;5070277;28;19967;-65
2023/09/17 08:06:36;;;;;;;8.85;4.78;;;23.80;99.90;;;;;;5073271;28;20013;-67
2023/09/17 08:09:02;;;;;;;;;;;23.90;99.90;;;;;;5069398;28;20495;-64
2023/09/17 08:11:31;;;;;;;5.70;4.70;;;23.80;99.90;;;;;;5063587;28;19912;-65
2023/09/17 08:13:57;;;;;;;;;;;23.90;99.90;;;;;;5074481;28;20017;-65
2023/09/17 08:16:24;;;;;;;6.78;4.82;;;24.00;99.90;;;;;;5057993;28;19935;-63
2023/09/17 08:18:50;;;;;;;7.00;4.47;;;24.40;99.90;;;;;;5057214;28;20016;-64
2023/09/17 08:21:15;;;;;;;;;;;24.70;99.90;;;;;;5070350;28;20074;-64
2023/09/17 08:23:41;;;;;;;5.10;4.47;;;25.10;99.90;;;;;;5061665;28;19966;-66
2023/09/17 08:26:07;;;;;;;;;;;25.30;99.90;;;;;;5068686;28;20024;-65
2023/09/17 08:28:34;;;;;;;6.57;4.53;;;25.20;99.90;;;;;;5062574;28;19919;-65
2023/09/17 08:31:00;;;;;;;5.78;4.45;;;25.20;99.90;;;;;;5060984;28;20051;-64
2023/09/17 08:33:26;;;;;;;;;;;25.10;99.90;;;;;;5060336;28;20471;-65
2023/09/17 08:35:51;;;;;;;8.93;7.57;;;25.00;99.90;;;;;;5036235;28;19909;-64
2023/09/17 08:38:18;;;;;;;;;;;25.20;99.90;;;;;;5054717;28;20043;-62
2023/09/17 08:40:44;;;;;;;8.48;5.07;;;26.30;99.90;;;;;;5054094;28;19905;-64
2023/09/17 08:43:11;;;;;;;5.72;4.30;;;28.20;99.90;;;;;;5054213;28;20052;-65
2023/09/17 08:45:37;;;;;;;6.65;4.30;;;29.00;99.20;;;;;;5054038;28;20532;-65
2023/09/17 08:48:02;;;;;;;6.28;4.30;;;29.40;98.20;;;;;;5054339;28;20032;-66
2023/09/17 08:50:31;;;;;;;5.72;4.28;;;29.50;97.80;;;;;;5089836;28;20421;-63
2023/09/17 08:53:02;;;;;;;7.00;4.18;;;29.70;97.20;;;;;;5063421;28;20020;-62
2023/09/17 08:55:28;;;;;;;5.40;3.85;;;30.90;96.20;;;;;;5068008;28;20468;-64
2023/09/17 08:58:06;;;;;;;4.60;3.90;;;32.70;94.20;;;;;;5064760;28;20028;-62
2023/09/17 09:00:36;;;;;;;4.90;3.95;;;34.70;91.60;;;;;;5069578;28;20048;-65
2023/09/17 09:03:05;;;;;;;5.38;4.07;;;35.20;90.00;;;;;;5066766;28;20383;-64
2023/09/17 09:05:30;;;;;;;4.70;3.78;;;35.60;87.40;;;;;;5067457;28;20078;-62
2023/09/17 09:07:57;;;;;;;4.35;3.95;;;35.90;85.40;;;;;;5073437;28;20033;-62
2023/09/17 09:10:23;;;;;;;4.35;3.95;;;37.10;83.40;;;;;;5072377;28;20115;-64
2023/09/17 09:12:50;;;;;;;5.38;4.25;;;38.40;80.20;;;;;;5071669;28;20023;-63
2023/09/17 09:15:15;;;;;;;6.90;3.70;;;39.50;76.80;;;;;;5071587;28;20017;-63
2023/09/17 09:17:41;;;;;;;4.57;3.92;;;40.20;74.50;;;;;;5072199;28;20405;-65
2023/09/17 09:20:11;;;;;;;4.95;3.65;;;39.90;72.50;;;;;;5087326;28;20031;-65
2023/09/17 09:22:38;;;;;;;3.97;3.55;;;39.40;71.70;;;;;;5092573;28;20076;-68
2023/09/17 09:25:06;;;;;;;5.45;3.95;;;39.30;71.50;;;;;;5074654;28;20039;-68
2023/09/17 09:27:32;;;;;;;7.13;3.72;;;39.90;72.20;;;;;;5093615;28;20031;-69
2023/09/17 09:29:58;;;;;;;6.43;3.65;;;41.00;69.60;;;;;;5093891;28;20024;-67
2023/09/17 09:32:23;;;;;;;5.30;4.05;;;39.00;70.20;;;;;;5093925;28;20473;-68
2023/09/17 09:34:51;;;;;;;5.57;3.33;;;38.20;72.20;;;;;;5093272;28;20386;-64
2023/09/17 09:37:21;;;;;;;4.28;3.33;;;38.40;71.30;;;;;;5084117;28;20399;-65
2023/09/17 09:39:47;;;;;;;5.13;3.50;;;37.30;71.90;;;;;;5073232;28;20115;-65
2023/09/17 09:42:13;;;;;;;4.82;3.42;;;37.60;72.50;;;;;;5073044;28;20074;-65
2023/09/17 09:44:39;;;;;;;6.53;3.30;;;38.80;71.00;;;;;;5055104;28;20020;-69
2023/09/17 09:47:04;;;;;;;4.72;3.90;;;38.40;71.80;;;;;;5072888;28;20123;-70
2023/09/17 09:49:40;;;;;;;5.10;3.53;;;38.90;70.20;;;;;;5072707;28;20031;-58
2023/09/17 09:52:05;;;;;;;5.85;3.60;;;39.00;69.80;;;;;;5073375;28;20429;-67
2023/09/17 09:54:31;;;;;;;5.22;3.17;;;39.30;69.50;;;;;;5072759;28;20021;-66
2023/09/17 09:56:58;;;;;;;6.13;3.70;;;38.80;69.10;;;;;;5072654;28;20107;-65
2023/09/17 09:59:25;;;;;;;5.15;3.60;;;37.90;71.50;;;;;;5073035;28;20154;-65
2023/09/17 10:01:51;;;;;;;5.28;3.13;;;38.40;70.60;;;;;;5072842;28;20020;-65
2023/09/17 10:04:18;;;;;;;5.10;3.50;;;38.80;69.50;;;;;;5072343;28;20043;-66
2023/09/17 10:06:45;;;;;;;7.20;4.38;;;38.70;70.20;;;;;;5072767;28;20475;-65
2023/09/17 10:09:13;;;;;;;3.60;2.97;;;38.40;70.50;;;;;;5072625;28;20042;-64
2023/09/17 10:11:39;;;;;;;8.13;3.42;;;38.40;70.20;;;;;;5072871;28;20144;-65
2023/09/17 10:14:06;;;;;;;4.22;3.08;;;38.40;70.50;;;;;;5072718;28;20479;-65
2023/09/17 10:16:33;;;;;;;9.02;3.70;;;38.60;69.60;;;;;;5073046;28;20016;-65
2023/09/17 10:19:00;;;;;;;9.05;4.57;;;38.80;69.20;;;;;;5078355;28;20433;-67
2023/09/17 10:21:27;;;;;;;8.00;3.30;;;38.60;69.10;;;;;;5092934;28;20103;-66
2023/09/17 10:23:56;;;;;;;8.00;3.00;;;38.20;69.10;;;;;;5092606;28;20115;-66
2023/09/17 10:26:23;;;;;;;6.88;2.83;;;38.00;69.50;;;;;;5092733;28;20032;-66
2023/09/17 10:28:50;;;;;;;5.28;3.22;;;37.10;71.70;;;;;;5092603;28;20081;-64
2023/09/17 10:31:16;;;;;;;7.85;3.22;;;36.90;71.00;;;;;;5092894;28;20028;-66
2023/09/17 10:33:47;;;;;;;5.70;3.53;;;37.20;72.00;;;;;;5092501;28;20034;-65
2023/09/17 10:36:13;;;;;;;5.47;2.90;;;37.60;71.50;;;;;;5092480;28;20021;-66
2023/09/17 10:38:41;;;;;;;5.80;2.83;;;37.70;69.90;;;;;;5092592;28;20043;-66
2023/09/17 10:41:08;;;;;;;6.63;3.10;;;37.50;70.90;;;;;;5093565;28;20031;-65
2023/09/17 10:43:35;;;;;;;5.43;3.40;;;37.40;70.30;;;;;;5096452;28;20308;-66
2023/09/17 10:46:02;;;;;;;5.97;3.60;;;36.70;71.70;;;;;;5096590;28;20168;-64
2023/09/17 10:48:30;;;;;;;6.93;3.10;;;37.10;71.40;;;;;;5096452;28;20107;-63
2023/09/17 10:50:57;;;;;;;5.70;2.90;;;37.50;71.40;;;;;;5096357;28;20131;-64
2023/09/17 10:53:25;;;;;;;7.75;3.22;;;37.80;70.80;;;;;;5096923;28;20016;-64
2023/09/17 10:56:13;;;;;;;8.90;3.58;;;37.30;70.70;;;;;;5096982;28;20469;-65
2023/09/17 10:58:43;;;;;;;8.80;2.88;;;37.10;71.40;;;;;;5097573;28;20034;-64
2023/09/17 11:01:13;;;;;;;11.68;3.17;;;36.20;71.60;;;;;;5098121;28;20320;-63
2023/09/17 11:03:44;;;;;;;7.05;3.25;;;35.90;72.20;;;;;;5096371;28;20034;-64
2023/09/17 11:06:23;;;;;;;6.72;2.85;;;35.20;72.90;;;;;;5096185;28;20024;-65
2023/09/17 11:08:51;;;;;;;8.27;3.72;;;34.30;73.40;;;;;;5096087;28;20028;-64
2023/09/17 11:11:18;;;;;;;10.07;3.30;;;33.40;75.20;;;;;;5096360;28;20032;-64
2023/09/17 11:13:46;;;;;;;11.00;3.30;;;32.80;76.30;;;;;;5095845;28;20082;-63
2023/09/17 11:16:18;;;;;;;11.55;3.45;;;31.90;78.10;;;;;;5096745;28;20016;-62
2023/09/17 11:19:09;;;;;;;10.43;3.83;;;31.70;79.40;;;;;;5096948;28;20073;-64
2023/09/17 11:21:42;;;;;;;13.77;3.63;;;31.20;79.90;;;;;;5095959;28;20115;-64
2023/09/17 11:24:12;;;;;;;9.98;3.88;;;31.10;80.30;;;;;;5095599;28;20379;-64
2023/09/17 11:26:40;;;;;;;11.65;3.25;;;31.10;81.00;;;;;;5096807;28;20031;-64
2023/09/17 11:29:07;;;;;;;11.75;4.10;;;31.10;80.90;;;;;;5095612;28;20091;-64
2023/09/17 11:31:59;;;;;;;7.68;3.83;;;31.00;81.20;;;;;;5095672;28;20028;-64
2023/09/17 11:34:25;;;;;;;12.35;4.38;;;30.90;81.20;;;;;;5095526;28;20494;-64
2023/09/17 11:36:52;;;;;;;13.10;4.40;;;30.80;81.80;;;;;;5095928;28;20050;-65
2023/09/17 11:39:21;;;;;;;12.80;3.38;;;30.80;81.90;;;;;;5096281;28;20028;-63
2023/09/17 11:41:52;;;;;;;10.32;4.03;;;30.90;81.30;;;;;;5096350;28;20016;-64
2023/09/17 11:44:20;;;;;;;13.48;4.30;;;30.90;81.70;;;;;;5095824;28;20024;-63
2023/09/17 11:46:45;;;;;;;9.82;3.40;;;31.00;82.20;;;;;;5095830;28;20028;-64
2023/09/17 11:49:11;;;;;;;10.80;3.28;;;30.90;82.20;;;;;;5095941;28;20103;-65
2023/09/17 11:51:48;;;;;;;10.30;3.63;;;30.90;82.30;;;;;;5095374;28;20020;-64
2023/09/17 11:54:20;;;;;;;11.25;3.92;;;31.00;82.60;;;;;;5095331;28;20102;-64
2023/09/17 11:56:53;;;;;;;13.18;3.78;;;30.90;82.80;;;;;;5095610;28;20012;-65
2023/09/17 11:59:20;;;;;;;12.85;4.82;;;30.90;82.20;;;;;;5095920;28;20020;-64
2023/09/17 12:01:54;;;;;;;13.35;4.35;;;30.70;82.90;;;;;;5095677;28;20161;-64
2023/09/17 12:04:25;;;;;;;11.52;3.67;;;30.70;82.30;;;;;;5095508;28;20471;-63
2023/09/17 12:06:52;;;;;;;8.10;3.65;;;30.60;83.10;;;;;;5095686;28;20031;-64
2023/09/17 12:11:57;;;;;;;12.27;4.07;;;30.50;83.00;;;;;;5095235;28;20360;-63
2023/09/17 12:14:23;;;;;;;14.00;3.42;;;30.40;83.40;;;;;;5095120;28;20024;-64
2023/09/17 12:16:50;;;;;;;10.45;3.30;;;30.20;83.80;;;;;;5095284;28;20027;-63
2023/09/17 12:19:20;;;;;;;13.10;3.60;;;30.20;83.60;;;;;;5095245;28;20387;-63
2023/09/17 12:21:48;;;;;;;8.25;3.28;;;30.20;83.90;;;;;;5095559;28;20032;-63
2023/09/17 12:24:21;;;;;;;9.93;3.70;;;30.10;84.60;;;;;;5094899;28;20064;-64
2023/09/17 12:29:35;;;;;;;11.63;3.95;;;30.10;84.60;;;;;;5095369;28;20024;-64
2023/09/17 12:32:02;;;;;;;12.77;4.28;;;30.10;85.00;;;;;;5076590;28;20020;-65
2023/09/17 12:34:28;;;;;;;11.10;3.90;;;30.10;85.00;;;;;;5094422;28;20385;-65
2023/09/17 12:36:53;;;;;;;12.23;3.78;;;30.10;84.90;;;;;;5094656;28;20028;-64
2023/09/17 12:39:19;;;;;;;8.40;3.08;;;30.10;85.00;;;;;;5094734;28;20026;-65
2023/09/17 12:41:44;;;;;;;9.00;3.38;;;30.10;84.90;;;;;;5094671;28;20100;-64
2023/09/17 12:44:10;;;;;;;12.90;4.60;;;30.20;84.20;;;;;;5094494;28;20028;-64
2023/09/17 12:46:37;;;;;;;9.75;3.42;;;30.20;84.90;;;;;;5094616;28;20077;-63
2023/09/17 12:49:03;;;;;;;12.38;3.65;;;30.20;83.90;;;;;;5094451;28;20038;-64
2023/09/17 12:51:29;;;;;;;13.95;3.85;;;30.10;83.40;;;;;;5094359;28;20463;-65